createdAt,value
2018-11-27T00:01:36.807Z,100062.00
2018-11-27T00:04:18.390Z,100067.00
2018-11-27T00:07:00.575Z,100061.00
2018-11-27T00:09:43.137Z,100070.00
2018-11-27T00:12:25.668Z,100074.00
2018-11-27T00:15:11.222Z,100075.00
2018-11-27T00:17:53.435Z,100075.00
2018-11-27T00:20:35.450Z,100071.00
2018-11-27T00:23:17.749Z,100074.00
2018-11-27T00:26:00.069Z,100076.00
2018-11-27T00:28:42.261Z,100072.00
2018-11-27T00:31:24.226Z,100075.00
2018-11-27T00:34:06.566Z,100072.00
2018-11-27T00:36:48.584Z,100075.00
2018-11-27T00:39:31.361Z,100080.00
2018-11-27T00:42:13.754Z,100072.00
2018-11-27T00:44:56.606Z,100075.00
2018-11-27T00:47:38.747Z,100081.00
2018-11-27T00:50:23.897Z,100077.00
2018-11-27T00:53:06.492Z,100083.00
2018-11-27T00:55:48.198Z,100084.00
2018-11-27T00:58:29.978Z,100094.00
2018-11-27T01:01:11.904Z,100098.00
2018-11-27T01:03:54.147Z,100099.00
2018-11-27T01:06:36.043Z,100113.00
2018-11-27T01:09:18.173Z,100110.00
2018-11-27T01:12:00.427Z,100110.00
2018-11-27T01:14:42.973Z,100108.00
2018-11-27T01:17:25.035Z,100114.00
2018-11-27T01:20:12.956Z,100119.00
2018-11-27T01:22:55.337Z,100119.00
2018-11-27T01:25:37.524Z,100123.00
2018-11-27T01:28:19.625Z,100122.00
2018-11-27T01:31:01.501Z,100122.00
2018-11-27T01:33:43.312Z,100120.00
2018-11-27T01:36:25.334Z,100122.00
2018-11-27T01:39:08.863Z,100118.00
2018-11-27T01:41:53.504Z,100124.00
2018-11-27T01:44:35.430Z,100120.00
2018-11-27T01:47:16.920Z,100123.00
2018-11-27T01:49:59.344Z,100121.00
2018-11-27T01:52:42.833Z,100118.00
2018-11-27T01:55:25.294Z,100128.00
2018-11-27T01:58:08.264Z,100130.00
2018-11-27T02:00:50.610Z,100129.00
2018-11-27T02:03:33.788Z,100127.00
2018-11-27T02:06:15.979Z,100126.00
2018-11-27T02:08:58.201Z,100125.00
2018-11-27T02:11:40.349Z,100127.00
2018-11-27T02:14:22.307Z,100129.00
2018-11-27T02:17:05.383Z,100121.00
2018-11-27T02:19:47.605Z,100129.00
2018-11-27T02:22:29.361Z,100125.00
2018-11-27T02:25:22.272Z,100131.00
2018-11-27T02:28:04.456Z,100131.00
2018-11-27T02:30:46.969Z,100136.00
2018-11-27T02:33:29.378Z,100145.00
2018-11-27T02:36:11.539Z,100140.00
2018-11-27T02:38:54.164Z,100143.00
2018-11-27T02:41:36.667Z,100151.00
2018-11-27T02:44:18.506Z,100149.00
2018-11-27T02:47:00.222Z,100154.00
2018-11-27T02:49:42.310Z,100159.00
2018-11-27T02:52:24.142Z,100153.00
2018-11-27T02:55:09.194Z,100164.00
2018-11-27T02:57:50.983Z,100168.00
2018-11-27T03:00:33.088Z,100175.00
2018-11-27T03:03:15.197Z,100174.00
2018-11-27T03:05:57.195Z,100177.00
2018-11-27T03:08:39.247Z,100179.00
2018-11-27T03:11:21.745Z,100179.00
2018-11-27T03:14:04.271Z,100182.00
2018-11-27T03:16:46.686Z,100182.00
2018-11-27T03:19:28.809Z,100192.00
2018-11-27T03:22:11.145Z,100187.00
2018-11-27T03:24:53.295Z,100190.00
2018-11-27T03:27:34.910Z,100190.00
2018-11-27T03:30:23.749Z,100187.00
2018-11-27T03:33:07.032Z,100184.00
2018-11-27T03:35:49.389Z,100182.00
2018-11-27T03:38:32.047Z,100187.00
2018-11-27T03:41:14.128Z,100190.00
2018-11-27T03:43:56.974Z,100192.00
2018-11-27T03:46:39.108Z,100199.00
2018-11-27T03:49:21.137Z,100192.00
2018-11-27T03:52:03.000Z,100193.00
2018-11-27T03:54:44.877Z,100196.00
2018-11-27T03:57:27.189Z,100197.00
2018-11-27T04:00:18.056Z,100203.00
2018-11-27T04:03:12.992Z,100205.00
2018-11-27T04:05:54.692Z,100206.00
2018-11-27T04:08:36.505Z,100207.00
2018-11-27T04:11:18.689Z,100212.00
2018-11-27T04:14:01.651Z,100214.00
2018-11-27T04:16:43.498Z,100216.00
2018-11-27T04:19:25.396Z,100211.00
2018-11-27T04:22:09.209Z,100209.00
2018-11-27T04:24:51.974Z,100214.00
2018-11-27T04:27:34.148Z,100217.00
2018-11-27T04:30:20.112Z,100220.00
2018-11-27T04:33:01.621Z,100220.00
2018-11-27T04:35:43.813Z,100222.00
2018-11-27T04:38:26.343Z,100231.00
2018-11-27T04:41:08.352Z,100227.00
2018-11-27T04:43:50.710Z,100231.00
2018-11-27T04:46:32.696Z,100229.00
2018-11-27T04:49:15.681Z,100225.00
2018-11-27T04:51:58.278Z,100223.00
2018-11-27T04:54:41.118Z,100228.00
2018-11-27T04:57:23.500Z,100231.00
2018-11-27T05:00:10.428Z,100231.00
2018-11-27T05:02:52.963Z,100236.00
2018-11-27T05:05:35.136Z,100238.00
2018-11-27T05:08:17.052Z,100246.00
2018-11-27T05:10:58.744Z,100252.00
2018-11-27T05:13:40.623Z,100245.00
2018-11-27T05:16:22.567Z,100242.00
2018-11-27T05:19:04.564Z,100243.00
2018-11-27T05:21:46.577Z,100251.00
2018-11-27T05:24:29.545Z,100251.00
2018-11-27T05:27:11.362Z,100257.00
2018-11-27T05:29:53.524Z,100254.00
2018-11-27T05:32:35.900Z,100264.00
2018-11-27T05:35:25.086Z,100258.00
2018-11-27T05:38:07.650Z,100260.00
2018-11-27T05:40:49.504Z,100268.00
2018-11-27T05:43:31.623Z,100271.00
2018-11-27T05:46:13.319Z,100278.00
2018-11-27T05:48:55.536Z,100275.00
2018-11-27T05:51:37.600Z,100279.00
2018-11-27T05:54:19.985Z,100283.00
2018-11-27T05:57:01.815Z,100283.00
2018-11-27T05:59:44.533Z,100281.00
2018-11-27T06:02:25.937Z,100283.00
2018-11-27T06:05:12.828Z,100284.00
2018-11-27T06:07:54.724Z,100285.00
2018-11-27T06:10:37.171Z,100288.00
2018-11-27T06:13:20.066Z,100292.00
2018-11-27T06:16:03.063Z,100300.00
2018-11-27T06:18:45.046Z,100303.00
2018-11-27T06:21:27.217Z,100306.00
2018-11-27T06:24:09.319Z,100311.00
2018-11-27T06:26:51.209Z,100325.00
2018-11-27T06:29:32.956Z,100322.00
2018-11-27T06:32:14.985Z,100328.00
2018-11-27T06:34:57.236Z,100334.00
2018-11-27T06:37:39.443Z,100335.00
2018-11-27T06:40:22.947Z,100337.00
2018-11-27T06:43:06.190Z,100344.00
2018-11-27T06:45:47.913Z,100348.00
2018-11-27T06:48:30.706Z,100357.00
2018-11-27T06:51:13.068Z,100363.00
2018-11-27T06:53:55.043Z,100367.00
2018-11-27T06:56:37.934Z,100370.00
2018-11-27T06:59:20.272Z,100373.00
2018-11-27T07:02:02.577Z,100374.00
2018-11-27T07:04:45.013Z,100381.00
2018-11-27T07:07:27.666Z,100387.00
2018-11-27T07:10:31.195Z,100380.00
2018-11-27T07:13:18.435Z,100388.00
2018-11-27T07:16:00.825Z,100399.00
2018-11-27T07:18:42.923Z,100406.00
2018-11-27T07:21:25.651Z,100402.00
2018-11-27T07:24:07.988Z,100405.00
2018-11-27T07:26:52.856Z,100417.00
2018-11-27T07:29:32.067Z,100411.00
2018-11-27T07:32:13.788Z,100414.00
2018-11-27T07:34:55.319Z,100417.00
2018-11-27T07:37:37.344Z,100432.00
2018-11-27T07:40:26.643Z,100432.00
2018-11-27T07:43:11.181Z,100437.00
2018-11-27T07:45:55.180Z,100448.00
2018-11-27T07:48:35.244Z,100452.00
2018-11-27T07:51:17.341Z,100456.00
2018-11-27T07:53:59.596Z,100460.00
2018-11-27T07:56:41.316Z,100465.00
2018-11-27T07:59:23.160Z,100466.00
2018-11-27T08:02:05.667Z,100470.00
2018-11-27T08:04:48.073Z,100472.00
2018-11-27T08:07:31.548Z,100475.00
2018-11-27T08:10:16.024Z,100478.00
2018-11-27T08:12:57.764Z,100483.00
2018-11-27T08:15:39.956Z,100480.00
2018-11-27T08:18:22.470Z,100480.00
2018-11-27T08:21:05.517Z,100495.00
2018-11-27T08:23:47.528Z,100503.00
2018-11-27T08:26:29.661Z,100506.00
2018-11-27T08:29:11.534Z,100506.00
2018-11-27T08:31:54.615Z,100505.00
2018-11-27T08:34:37.055Z,100510.00
2018-11-27T08:37:19.092Z,100511.00
2018-11-27T08:40:01.280Z,100517.00
2018-11-27T08:42:43.142Z,100521.00
2018-11-27T08:45:27.055Z,100522.00
2018-11-27T08:48:10.496Z,100529.00
2018-11-27T08:50:53.129Z,100526.00
2018-11-27T08:53:34.978Z,100535.00
2018-11-27T08:56:16.774Z,100541.00
2018-11-27T08:58:58.929Z,100548.00
2018-11-27T09:01:41.119Z,100547.00
2018-11-27T09:04:22.821Z,100554.00
2018-11-27T09:07:05.285Z,100559.00
2018-11-27T09:09:47.975Z,100561.00
2018-11-27T09:12:30.083Z,100566.00
2018-11-27T09:15:14.297Z,100564.00
2018-11-27T09:18:20.812Z,100567.00
2018-11-27T09:21:02.799Z,100572.00
2018-11-27T09:23:44.528Z,100571.00
2018-11-27T09:26:26.697Z,100570.00
2018-11-27T09:29:09.252Z,100575.00
2018-11-27T09:31:51.055Z,100577.00
2018-11-27T09:34:34.580Z,100574.00
2018-11-27T09:37:17.187Z,100569.00
2018-11-27T09:39:59.021Z,100571.00
2018-11-27T09:42:41.458Z,100571.00
2018-11-27T09:45:25.825Z,100575.00
2018-11-27T09:48:08.386Z,100575.00
2018-11-27T09:53:38.066Z,100584.00
2018-11-27T09:56:20.270Z,100591.00
2018-11-27T09:59:02.441Z,100586.00
2018-11-27T10:01:44.992Z,100586.00
2018-11-27T10:04:26.839Z,100591.00
2018-11-27T10:07:11.039Z,100592.00
2018-11-27T10:09:52.933Z,100593.00
2018-11-27T10:12:35.087Z,100595.00
2018-11-27T10:15:23.672Z,100594.00
2018-11-27T10:18:05.778Z,100598.00
2018-11-27T10:20:48.106Z,100598.00
2018-11-27T10:23:30.512Z,100593.00
2018-11-27T10:26:12.242Z,100594.00
2018-11-27T10:28:54.134Z,100597.00
2018-11-27T10:31:36.287Z,100596.00
2018-11-27T10:34:18.283Z,100593.00
2018-11-27T10:37:00.665Z,100594.00
2018-11-27T10:39:42.562Z,100605.00
2018-11-27T10:42:29.935Z,100601.00
2018-11-27T10:45:13.394Z,100601.00
2018-11-27T10:47:56.745Z,100603.00
2018-11-27T10:50:38.826Z,100601.00
2018-11-27T10:53:21.892Z,100593.00
2018-11-27T10:56:04.439Z,100595.00
2018-11-27T10:58:46.508Z,100594.00
2018-11-27T11:01:33.663Z,100597.00
2018-11-27T11:04:15.812Z,100597.00
2018-11-27T11:06:58.054Z,100596.00
2018-11-27T11:09:39.883Z,100610.00
2018-11-27T11:12:21.592Z,100605.00
2018-11-27T11:15:03.517Z,100609.00
2018-11-27T11:17:45.636Z,100604.00
2018-11-27T11:20:28.163Z,100603.00
2018-11-27T11:23:10.673Z,95507.00
2018-11-27T11:25:52.854Z,100607.00
2018-11-27T11:28:34.553Z,100611.00
2018-11-27T11:31:17.378Z,100610.00
2018-11-27T11:33:59.397Z,100613.00
2018-11-27T11:36:41.562Z,100611.00
2018-11-27T11:39:23.309Z,100612.00
2018-11-27T11:42:05.700Z,100611.00
2018-11-27T11:44:48.587Z,100615.00
2018-11-27T11:47:32.074Z,100613.00
2018-11-27T11:50:19.298Z,100618.00
2018-11-27T11:53:10.057Z,100614.00
2018-11-27T11:55:53.208Z,100629.00
2018-11-27T11:58:35.712Z,100633.00
2018-11-27T12:01:18.499Z,100638.00
2018-11-27T12:04:00.944Z,100631.00
2018-11-27T12:06:42.938Z,100632.00
2018-11-27T12:09:26.557Z,100638.00
2018-11-27T12:12:08.891Z,100638.00
2018-11-27T12:14:50.877Z,100635.00
2018-11-27T12:17:32.820Z,100640.00
2018-11-27T12:20:18.985Z,100641.00
2018-11-27T12:23:00.873Z,100646.00
2018-11-27T12:25:42.732Z,100647.00
2018-11-27T12:28:25.074Z,100650.00
2018-11-27T12:31:07.574Z,100649.00
2018-11-27T12:33:49.748Z,100657.00
2018-11-27T12:36:31.834Z,100660.00
2018-11-27T12:39:13.779Z,100654.00
2018-11-27T12:41:56.113Z,100673.00
2018-11-27T12:44:38.209Z,100669.00
2018-11-27T12:47:20.304Z,100662.00
2018-11-27T12:50:02.440Z,100662.00
2018-11-27T12:52:44.904Z,100668.00
2018-11-27T12:55:27.123Z,100675.00
2018-11-27T12:58:10.209Z,100685.00
2018-11-27T13:00:53.199Z,100683.00
2018-11-27T13:03:35.352Z,100693.00
2018-11-27T13:06:17.425Z,100690.00
2018-11-27T13:08:59.722Z,100692.00
2018-11-27T13:11:42.053Z,100688.00
2018-11-27T13:14:23.880Z,100692.00
2018-11-27T13:17:06.284Z,100694.00
2018-11-27T13:19:48.151Z,100698.00
2018-11-27T13:22:30.627Z,100693.00
2018-11-27T13:25:20.339Z,100705.00
2018-11-27T13:28:02.781Z,100703.00
2018-11-27T13:30:56.039Z,100711.00
2018-11-27T13:34:11.628Z,100711.00
2018-11-27T13:36:53.891Z,100721.00
2018-11-27T13:39:38.829Z,100721.00
2018-11-27T13:42:21.507Z,100728.00
2018-11-27T13:45:03.801Z,100721.00
2018-11-27T13:47:46.097Z,100728.00
2018-11-27T13:50:27.923Z,100735.00
2018-11-27T13:53:10.618Z,100733.00
2018-11-27T13:55:52.823Z,100731.00
2018-11-27T13:58:34.872Z,100741.00
2018-11-27T14:01:16.821Z,100741.00
2018-11-27T14:03:58.810Z,100750.00
2018-11-27T14:06:41.324Z,100748.00
2018-11-27T14:09:23.548Z,100754.00
2018-11-27T14:12:05.722Z,100753.00
2018-11-27T14:14:48.314Z,100754.00
2018-11-27T14:17:30.866Z,100745.00
2018-11-27T14:20:13.005Z,100758.00
2018-11-27T14:22:55.233Z,100756.00
2018-11-27T14:25:37.333Z,100757.00
2018-11-27T14:28:19.588Z,100763.00
2018-11-27T14:31:01.850Z,100764.00
2018-11-27T14:33:44.417Z,100774.00
2018-11-27T14:36:26.549Z,100776.00
2018-11-27T14:39:10.503Z,100779.00
2018-11-27T14:41:52.856Z,100785.00
2018-11-27T14:44:34.903Z,100793.00
2018-11-27T14:47:16.983Z,100798.00
2018-11-27T14:50:04.081Z,100798.00
2018-11-27T14:52:42.695Z,100811.00
2018-11-27T14:55:30.124Z,100806.00
2018-11-27T14:58:15.027Z,100805.00
2018-11-27T15:00:55.435Z,100800.00
2018-11-27T15:03:39.637Z,100794.00
2018-11-27T15:06:23.778Z,100797.00
2018-11-27T15:09:11.016Z,100801.00
2018-11-27T15:11:53.424Z,100797.00
2018-11-27T15:14:36.179Z,100804.00
2018-11-27T15:17:18.156Z,100804.00
2018-11-27T15:20:01.286Z,100808.00
2018-11-27T15:22:44.341Z,100808.00
2018-11-27T15:25:27.384Z,100809.00
2018-11-27T15:28:10.091Z,100809.00
2018-11-27T15:30:52.367Z,100813.00
2018-11-27T15:33:34.340Z,100810.00
2018-11-27T15:36:16.139Z,100809.00
2018-11-27T15:38:57.927Z,100812.00
2018-11-27T15:41:40.474Z,100817.00
2018-11-27T15:44:22.317Z,100821.00
2018-11-27T15:47:04.653Z,100818.00
2018-11-27T15:49:46.574Z,100821.00
2018-11-27T15:52:28.308Z,100827.00
2018-11-27T15:55:13.584Z,100828.00
2018-11-27T15:57:59.839Z,100830.00
2018-11-27T16:00:43.286Z,100830.00
2018-11-27T16:03:26.268Z,100834.00
2018-11-27T16:06:09.565Z,100837.00
2018-11-27T16:08:51.994Z,100831.00
2018-11-27T16:11:33.945Z,100837.00
2018-11-27T16:14:16.079Z,100837.00
2018-11-27T16:16:57.942Z,100840.00
2018-11-27T16:19:39.838Z,100848.00
2018-11-27T16:22:21.870Z,100850.00
2018-11-27T16:25:04.715Z,100854.00
2018-11-27T16:27:47.881Z,100852.00
2018-11-27T16:30:31.612Z,100852.00
2018-11-27T16:33:12.964Z,100856.00
2018-11-27T16:35:55.230Z,100857.00
2018-11-27T16:38:40.218Z,100861.00
2018-11-27T16:41:20.223Z,100862.00
2018-11-27T16:44:01.975Z,100864.00
2018-11-27T16:46:44.154Z,100870.00
2018-11-27T16:49:25.403Z,100875.00
2018-11-27T16:52:07.740Z,100889.00
2018-11-27T16:54:49.975Z,100880.00
2018-11-27T16:57:32.626Z,100878.00
2018-11-27T17:00:30.780Z,100882.00
2018-11-27T17:03:12.386Z,100885.00
2018-11-27T17:05:53.673Z,100889.00
2018-11-27T17:08:36.467Z,100891.00
2018-11-27T17:11:17.974Z,100902.00
2018-11-27T17:14:01.461Z,100894.00
2018-11-27T17:16:42.739Z,100899.00
2018-11-27T17:19:24.366Z,100899.00
2018-11-27T17:22:07.644Z,100902.00
2018-11-27T17:24:49.421Z,100901.00
2018-11-27T17:27:31.790Z,100899.00
2018-11-27T17:30:29.061Z,100905.00
2018-11-27T17:33:19.442Z,100913.00
2018-11-27T17:36:02.330Z,100917.00
2018-11-27T17:38:45.499Z,100920.00
2018-11-27T17:41:27.545Z,100924.00
2018-11-27T17:44:12.281Z,100937.00
2018-11-27T17:46:54.440Z,100940.00
2018-11-27T17:49:36.133Z,100947.00
2018-11-27T17:52:18.389Z,100947.00
2018-11-27T17:55:00.372Z,100953.00
2018-11-27T17:57:41.872Z,100954.00
2018-11-27T18:00:28.056Z,100955.00
2018-11-27T18:03:11.004Z,100957.00
2018-11-27T18:05:52.164Z,100960.00
2018-11-27T18:08:34.741Z,100962.00
2018-11-27T18:11:16.257Z,100960.00
2018-11-27T18:13:57.507Z,100957.00
2018-11-27T18:16:39.378Z,100952.00
2018-11-27T18:19:20.943Z,100948.00
2018-11-27T18:22:02.364Z,100958.00
2018-11-27T18:24:44.273Z,100961.00
2018-11-27T18:27:25.962Z,100964.00
2018-11-27T18:30:11.361Z,100971.00
2018-11-27T18:32:53.373Z,100970.00
2018-11-27T18:35:35.206Z,100977.00
2018-11-27T18:38:17.172Z,100975.00
2018-11-27T18:40:58.604Z,100979.00
2018-11-27T18:43:40.100Z,100981.00
2018-11-27T18:46:23.676Z,100980.00
2018-11-27T18:49:05.319Z,100983.00
2018-11-27T18:51:46.689Z,100981.00
2018-11-27T18:57:53.623Z,100983.00
2018-11-27T19:00:36.254Z,100985.00
2018-11-27T19:03:17.808Z,100988.00
2018-11-27T19:05:59.462Z,100989.00
2018-11-27T19:08:41.474Z,100985.00
2018-11-27T19:11:23.863Z,100983.00
2018-11-27T19:14:05.342Z,100988.00
2018-11-27T19:16:46.899Z,100990.00
2018-11-27T19:19:28.092Z,100994.00
2018-11-27T19:22:10.632Z,100995.00
2018-11-27T19:24:52.034Z,100998.00
2018-11-27T19:27:34.241Z,100997.00
2018-11-27T19:30:20.293Z,101003.00
2018-11-27T19:33:01.618Z,101001.00
2018-11-27T19:35:43.403Z,101000.00
2018-11-27T19:38:24.716Z,101004.00
2018-11-27T19:41:06.175Z,101008.00
2018-11-27T19:43:47.712Z,101010.00
2018-11-27T19:46:29.315Z,101012.00
2018-11-27T19:49:12.194Z,101016.00
2018-11-27T19:51:53.828Z,101025.00
2018-11-27T19:54:35.237Z,101023.00
2018-11-27T19:57:16.780Z,101031.00
2018-11-27T19:59:58.721Z,101031.00
2018-11-27T20:02:40.542Z,101041.00
2018-11-27T20:05:23.574Z,101038.00
2018-11-27T20:08:05.306Z,101049.00
2018-11-27T20:10:47.086Z,101052.00
2018-11-27T20:13:29.487Z,101051.00
2018-11-27T20:16:10.906Z,101050.00
2018-11-27T20:18:52.118Z,101058.00
2018-11-27T20:21:33.693Z,101054.00
2018-11-27T20:24:14.672Z,101056.00
2018-11-27T20:26:55.954Z,101053.00
2018-11-27T20:29:38.730Z,101057.00
2018-11-27T20:32:20.600Z,101062.00
2018-11-27T20:35:01.946Z,101071.00
2018-11-27T20:37:43.974Z,101077.00
2018-11-27T20:40:26.191Z,101080.00
2018-11-27T20:43:14.208Z,101080.00
2018-11-27T20:45:56.248Z,101086.00
2018-11-27T20:48:37.510Z,101089.00
2018-11-27T20:51:19.199Z,101085.00
2018-11-27T20:54:00.766Z,101086.00
2018-11-27T20:56:42.150Z,101089.00
2018-11-27T20:59:23.680Z,101086.00
2018-11-27T21:02:05.204Z,101094.00
2018-11-27T21:04:46.806Z,101093.00
2018-11-27T21:07:28.138Z,101097.00
2018-11-27T21:13:12.225Z,101105.00
2018-11-27T21:15:54.127Z,101108.00
2018-11-27T21:18:36.089Z,101112.00
2018-11-27T21:21:18.020Z,101123.00
2018-11-27T21:23:59.399Z,101128.00
2018-11-27T21:26:40.806Z,101135.00
2018-11-27T21:29:22.300Z,101131.00
2018-11-27T21:32:04.039Z,101134.00
2018-11-27T21:34:46.431Z,101147.00
2018-11-27T21:37:27.608Z,101143.00
2018-11-27T21:40:13.737Z,101142.00
2018-11-27T21:42:55.573Z,101137.00
2018-11-27T21:45:37.885Z,101138.00
2018-11-27T21:48:19.500Z,101146.00
2018-11-27T21:51:00.677Z,101142.00
2018-11-27T21:53:42.361Z,101139.00
2018-11-27T21:56:24.839Z,101134.00
2018-11-27T21:59:06.405Z,101128.00
2018-11-27T22:01:48.133Z,101128.00
2018-11-27T22:04:29.479Z,101135.00
2018-11-27T22:07:10.897Z,101139.00
2018-11-27T22:09:52.734Z,101139.00
2018-11-27T22:12:34.996Z,101142.00
2018-11-27T22:15:27.664Z,101142.00
2018-11-27T22:18:11.860Z,101145.00
2018-11-27T22:20:54.146Z,101146.00
2018-11-27T22:23:35.496Z,101150.00
2018-11-27T22:26:17.073Z,101156.00
2018-11-27T22:28:58.759Z,101158.00
2018-11-27T22:31:40.225Z,101159.00
2018-11-27T22:34:22.163Z,101155.00
2018-11-27T22:37:04.036Z,101158.00
2018-11-27T22:39:45.366Z,101162.00
2018-11-27T22:42:26.796Z,101167.00
2018-11-27T22:45:15.778Z,101167.00
2018-11-27T22:47:59.025Z,101178.00
2018-11-27T22:50:40.827Z,101184.00
2018-11-27T22:53:22.213Z,101190.00
2018-11-27T22:56:03.878Z,101191.00
2018-11-27T22:58:45.333Z,101193.00
2018-11-27T23:01:26.845Z,101199.00
2018-11-27T23:04:09.171Z,101202.00
2018-11-27T23:06:51.083Z,101195.00
2018-11-27T23:09:32.761Z,101194.00
2018-11-27T23:12:14.276Z,101187.00
2018-11-27T23:14:55.761Z,101186.00
2018-11-27T23:17:38.243Z,101185.00
2018-11-27T23:20:20.274Z,101189.00
2018-11-27T23:23:02.298Z,101190.00
2018-11-27T23:25:43.845Z,101193.00
2018-11-27T23:28:26.144Z,101190.00
2018-11-27T23:31:07.782Z,101191.00
2018-11-27T23:33:49.376Z,101204.00
2018-11-27T23:36:31.473Z,101210.00
2018-11-27T23:39:12.828Z,101214.00
2018-11-27T23:41:54.372Z,101205.00
2018-11-27T23:44:35.788Z,101197.00
2018-11-27T23:47:16.957Z,101197.00
2018-11-27T23:49:58.309Z,101192.00
2018-11-27T23:52:39.910Z,101191.00
2018-11-27T23:55:21.361Z,101191.00
2018-11-27T23:58:04.251Z,101185.00
